createdAt,value
2022-08-22T00:02:03.421Z,101915.13
2022-08-22T00:02:45.270Z,101903.50
2022-08-22T00:02:49.197Z,101915.78
2022-08-22T00:02:55.068Z,101939.84
2022-08-22T00:02:56.069Z,101932.00
2022-08-22T00:02:58.751Z,101937.00
2022-08-22T00:03:00.023Z,101880.53
2022-08-22T00:03:00.779Z,101904.06
2022-08-22T00:04:43.112Z,101915.00
2022-08-22T00:07:37.097Z,101911.00
2022-08-22T00:10:12.065Z,101915.38
2022-08-22T00:13:00.071Z,101919.78
2022-08-22T00:15:43.247Z,101914.66
2022-08-22T00:18:51.027Z,101915.50
2022-08-22T00:21:29.632Z,101915.75
2022-08-22T00:24:16.590Z,101915.03
2022-08-22T00:27:07.523Z,101914.03
2022-08-22T00:29:55.960Z,101920.38
2022-08-22T00:32:54.264Z,101920.50
2022-08-22T00:35:32.289Z,101923.31
2022-08-22T00:38:22.138Z,101924.28
2022-08-22T00:41:16.597Z,101928.91
2022-08-22T00:44:11.332Z,101924.00
2022-08-22T00:46:51.400Z,101926.44
2022-08-22T00:49:42.341Z,101928.03
2022-08-22T00:52:29.534Z,101931.69
2022-08-22T00:55:11.423Z,101938.34
2022-08-22T00:58:04.669Z,101940.53
2022-08-22T01:00:40.838Z,101935.06
2022-08-22T01:03:26.714Z,101933.34
2022-08-22T01:06:10.792Z,101931.78
2022-08-22T01:08:51.098Z,101933.72
2022-08-22T01:12:01.483Z,101941.63
2022-08-22T01:14:40.892Z,101936.75
2022-08-22T01:17:33.175Z,101939.56
2022-08-22T01:20:28.162Z,101949.44
2022-08-22T01:23:18.847Z,101939.78
2022-08-22T01:26:03.835Z,101940.78
2022-08-22T01:28:45.811Z,101945.50
2022-08-22T01:31:31.703Z,101945.03
2022-08-22T01:34:40.022Z,101944.91
2022-08-22T01:37:28.382Z,101939.66
2022-08-22T01:40:53.963Z,101937.94
2022-08-22T01:44:01.607Z,101937.47
2022-08-22T01:46:34.235Z,101939.16
2022-08-22T01:49:40.966Z,101940.88
2022-08-22T01:52:48.383Z,101942.69
2022-08-22T01:55:36.947Z,101945.63
2022-08-22T01:58:18.276Z,101938.34
2022-08-22T02:01:13.461Z,101949.06
2022-08-22T02:03:55.513Z,101939.31
2022-08-22T02:06:33.172Z,101942.97
2022-08-22T02:09:22.327Z,101933.47
2022-08-22T02:12:00.254Z,101940.53
2022-08-22T02:14:36.542Z,101936.38
2022-08-22T02:17:27.924Z,101935.78
2022-08-22T02:20:16.235Z,101938.44
2022-08-22T02:23:19.596Z,101937.59
2022-08-22T02:25:56.533Z,101936.97
2022-08-22T02:28:25.969Z,101935.88
2022-08-22T02:30:56.689Z,101935.28
2022-08-22T02:33:34.058Z,101928.44
2022-08-22T02:36:16.240Z,101934.91
2022-08-22T02:38:56.669Z,101925.50
2022-08-22T02:41:44.516Z,101929.63
2022-08-22T02:44:51.945Z,101925.47
2022-08-22T02:47:46.147Z,101923.88
2022-08-22T02:50:38.544Z,101921.69
2022-08-22T02:53:17.378Z,101919.22
2022-08-22T02:55:48.170Z,101914.94
2022-08-22T02:58:40.736Z,101920.41
2022-08-22T03:01:23.795Z,101915.00
2022-08-22T03:03:52.551Z,101910.25
2022-08-22T03:06:43.665Z,101916.34
2022-08-22T03:09:16.311Z,101911.28
2022-08-22T03:12:19.517Z,101913.47
2022-08-22T03:15:28.431Z,101912.09
2022-08-22T03:18:16.878Z,101903.22
2022-08-22T03:20:54.033Z,101903.84
2022-08-22T03:23:44.051Z,101899.47
2022-08-22T03:26:22.541Z,101898.09
2022-08-22T03:29:02.905Z,101902.72
2022-08-22T03:31:31.890Z,101901.97
2022-08-22T03:34:26.609Z,101897.06
2022-08-22T03:37:06.948Z,101895.25
2022-08-22T03:39:59.816Z,101890.47
2022-08-22T03:42:29.521Z,101899.34
2022-08-22T03:44:59.677Z,101894.47
2022-08-22T03:47:49.596Z,101891.88
2022-08-22T03:50:22.310Z,101892.09
2022-08-22T03:53:19.466Z,101888.13
2022-08-22T03:56:28.004Z,101888.13
2022-08-22T03:59:16.541Z,101893.59
2022-08-22T04:02:43.620Z,101895.31
2022-08-22T04:05:26.753Z,101895.63
2022-08-22T04:08:26.136Z,101890.38
2022-08-22T04:11:11.294Z,101890.38
2022-08-22T04:14:16.552Z,101891.47
2022-08-22T04:16:49.357Z,101886.75
2022-08-22T04:19:47.901Z,101888.44
2022-08-22T04:22:29.401Z,101879.91
2022-08-22T04:24:59.606Z,101884.06
2022-08-22T04:27:35.878Z,101888.44
2022-08-22T04:30:31.824Z,101892.94
2022-08-22T04:33:10.738Z,101898.19
2022-08-22T04:36:01.942Z,101896.16
2022-08-22T04:38:36.779Z,101897.31
2022-08-22T04:41:19.317Z,101895.66
2022-08-22T04:43:58.825Z,101903.22
2022-08-22T04:46:36.634Z,101901.03
2022-08-22T04:49:29.090Z,101904.97
2022-08-22T04:52:29.401Z,101912.56
2022-08-22T04:55:08.703Z,101913.94
2022-08-22T04:57:57.385Z,101910.28
2022-08-22T05:00:26.283Z,101909.44
2022-08-22T05:02:57.859Z,101919.06
2022-08-22T05:05:29.199Z,101920.75
2022-08-22T05:07:59.821Z,101913.22
2022-08-22T05:10:38.512Z,101906.91
2022-08-22T05:13:15.653Z,101916.22
2022-08-22T05:15:47.695Z,101913.53
2022-08-22T05:18:29.568Z,101906.22
2022-08-22T05:21:00.501Z,101916.81
2022-08-22T05:23:46.781Z,101919.16
2022-08-22T05:26:15.108Z,101918.06
2022-08-22T05:28:50.170Z,101929.75
2022-08-22T05:31:26.692Z,101928.91
2022-08-22T05:33:59.602Z,101939.38
2022-08-22T05:36:30.071Z,101948.16
2022-08-22T05:39:05.017Z,101939.50
2022-08-22T05:41:36.783Z,101944.50
2022-08-22T05:44:03.897Z,101944.03
2022-08-22T05:46:41.899Z,101945.25
2022-08-22T05:49:19.741Z,101943.94
2022-08-22T05:52:20.315Z,101943.56
2022-08-22T05:55:03.611Z,101940.41
2022-08-22T05:57:35.742Z,101936.50
2022-08-22T06:00:11.472Z,101949.81
2022-08-22T06:03:17.524Z,101951.38
2022-08-22T06:05:51.043Z,101946.03
2022-08-22T06:08:27.149Z,101949.81
2022-08-22T06:10:56.315Z,101948.00
2022-08-22T06:13:42.454Z,101950.47
2022-08-22T06:16:24.552Z,101954.47
2022-08-22T06:18:52.633Z,101957.56
2022-08-22T06:21:25.617Z,101961.59
2022-08-22T06:23:59.903Z,101948.91
2022-08-22T06:26:48.214Z,101957.44
2022-08-22T06:29:36.432Z,101957.56
2022-08-22T06:32:16.613Z,101961.47
2022-08-22T06:35:11.221Z,101949.25
2022-08-22T06:37:41.360Z,101960.09
2022-08-22T06:40:11.255Z,101955.34
2022-08-22T06:42:42.704Z,101951.25
2022-08-22T06:45:29.696Z,101954.88
2022-08-22T06:48:12.537Z,101949.25
2022-08-22T06:50:42.550Z,101949.69
2022-08-22T06:53:17.736Z,101944.88
2022-08-22T06:56:05.405Z,101957.59
2022-08-22T06:58:44.489Z,101958.81
2022-08-22T07:01:16.071Z,101952.91
2022-08-22T07:03:50.102Z,101958.59
2022-08-22T07:06:21.195Z,101950.66
2022-08-22T07:08:53.435Z,101946.94
2022-08-22T07:11:28.674Z,101955.91
2022-08-22T07:14:00.209Z,101957.66
2022-08-22T07:16:34.364Z,101953.47
2022-08-22T07:19:01.717Z,101949.69
2022-08-22T07:21:32.589Z,101941.38
2022-08-22T07:24:03.213Z,101950.19
2022-08-22T07:27:02.694Z,101938.72
2022-08-22T07:29:49.254Z,101944.31
2022-08-22T07:32:24.661Z,101942.91
2022-08-22T07:34:59.564Z,101947.56
2022-08-22T07:37:33.163Z,101949.28
2022-08-22T07:40:34.981Z,101940.34
2022-08-22T07:43:15.330Z,101938.94
2022-08-22T07:46:01.931Z,101928.16
2022-08-22T07:48:59.343Z,101933.13
2022-08-22T07:51:47.855Z,101923.63
2022-08-22T07:54:27.234Z,101923.78
2022-08-22T07:57:11.815Z,101919.53
2022-08-22T07:59:45.862Z,101918.38
2022-08-22T08:02:14.413Z,101914.81
2022-08-22T08:04:42.585Z,101906.88
2022-08-22T08:07:13.713Z,101906.44
2022-08-22T08:09:45.757Z,101909.69
2022-08-22T08:12:14.974Z,101912.81
2022-08-22T08:14:44.561Z,101907.16
2022-08-22T08:17:28.788Z,101903.72
2022-08-22T08:20:02.742Z,101906.56
2022-08-22T08:22:29.740Z,101895.03
2022-08-22T08:24:59.004Z,101898.28
2022-08-22T08:27:50.496Z,101885.94
2022-08-22T08:30:35.402Z,101894.91
2022-08-22T08:33:25.155Z,101889.78
2022-08-22T08:36:11.229Z,101889.66
2022-08-22T08:38:55.491Z,101889.94
2022-08-22T08:41:36.927Z,101899.28
2022-08-22T08:44:24.632Z,101892.75
2022-08-22T08:47:11.165Z,101900.84
2022-08-22T08:49:55.404Z,101901.69
2022-08-22T08:52:36.360Z,101904.09
2022-08-22T08:55:22.760Z,101897.38
2022-08-22T08:58:26.650Z,101899.63
2022-08-22T09:01:02.221Z,101895.91
2022-08-22T09:03:52.972Z,101900.31
2022-08-22T09:06:52.852Z,101904.25
2022-08-22T09:09:52.728Z,101902.50
2022-08-22T09:16:05.047Z,101896.19
2022-08-22T09:19:00.303Z,101901.41
2022-08-22T09:22:04.149Z,101898.53
2022-08-22T09:24:31.032Z,101904.09
2022-08-22T09:27:02.060Z,101894.16
2022-08-22T09:29:57.103Z,101895.47
2022-08-22T09:32:33.657Z,101888.13
2022-08-22T09:35:05.571Z,101886.91
2022-08-22T09:37:47.850Z,101881.72
2022-08-22T09:40:16.449Z,101899.75
2022-08-22T09:43:12.723Z,101878.47
2022-08-22T09:45:45.298Z,101870.22
2022-08-22T09:48:31.518Z,101878.22
2022-08-22T09:51:33.302Z,101871.63
2022-08-22T09:54:31.684Z,101870.78
2022-08-22T09:57:30.737Z,101865.91
2022-08-22T10:00:13.351Z,101867.81
2022-08-22T10:03:11.353Z,101864.44
2022-08-22T10:05:45.028Z,101862.41
2022-08-22T10:08:26.190Z,101865.34
2022-08-22T10:11:03.220Z,101852.66
2022-08-22T10:14:10.118Z,101858.22
2022-08-22T10:16:59.627Z,101862.69
2022-08-22T10:19:47.836Z,101850.69
2022-08-22T10:22:46.977Z,101851.44
2022-08-22T10:25:28.751Z,101838.47
2022-08-22T10:28:23.788Z,101833.50
2022-08-22T10:31:08.035Z,101834.59
2022-08-22T10:33:37.780Z,101831.94
2022-08-22T10:36:23.676Z,101823.03
2022-08-22T10:38:55.806Z,101830.97
2022-08-22T10:41:32.593Z,101836.56
2022-08-22T10:44:16.907Z,101831.38
2022-08-22T10:47:03.357Z,101831.06
2022-08-22T10:49:51.315Z,101832.22
2022-08-22T10:52:26.821Z,101825.81
2022-08-22T10:55:00.788Z,101838.84
2022-08-22T10:57:57.288Z,101840.69
2022-08-22T11:00:49.728Z,101828.69
2022-08-22T11:03:42.130Z,101829.97
2022-08-22T11:06:29.129Z,101835.38
2022-08-22T11:09:17.201Z,101834.94
2022-08-22T11:11:46.527Z,101836.97
2022-08-22T11:14:33.732Z,101834.44
2022-08-22T11:17:29.930Z,101836.19
2022-08-22T11:20:21.230Z,101834.31
2022-08-22T11:23:06.369Z,101831.78
2022-08-22T11:25:52.386Z,101825.81
2022-08-22T11:28:58.053Z,101828.56
2022-08-22T11:31:55.352Z,101820.94
2022-08-22T11:34:53.498Z,101825.69
2022-08-22T11:37:54.905Z,101826.34
2022-08-22T11:40:34.277Z,101818.41
2022-08-22T11:43:07.436Z,101815.84
2022-08-22T11:45:50.004Z,101811.28
2022-08-22T11:48:28.910Z,101812.13
2022-08-22T11:51:14.071Z,101812.81
2022-08-22T11:53:48.122Z,101820.59
2022-08-22T11:56:35.662Z,101807.69
2022-08-22T11:59:32.966Z,101800.06
2022-08-22T12:02:17.441Z,101805.84
2022-08-22T12:05:03.853Z,101812.81
2022-08-22T12:07:37.724Z,101820.44
2022-08-22T12:10:17.094Z,101817.88
2022-08-22T12:13:05.470Z,101825.00
2022-08-22T12:15:47.236Z,101828.91
2022-08-22T12:18:41.228Z,101821.44
2022-08-22T12:21:38.617Z,101823.31
2022-08-22T12:24:30.570Z,101814.66
2022-08-22T12:27:09.948Z,101815.69
2022-08-22T12:30:05.123Z,101808.69
2022-08-22T12:32:56.815Z,101807.34
2022-08-22T12:35:29.914Z,101801.91
2022-08-22T12:38:29.005Z,101802.09
2022-08-22T12:41:28.116Z,101801.41
2022-08-22T12:44:30.932Z,101794.81
2022-08-22T12:47:09.884Z,101798.31
2022-08-22T12:50:00.649Z,101789.00
2022-08-22T12:52:55.579Z,101788.50
2022-08-22T12:56:12.894Z,101765.63
2022-08-22T12:59:12.526Z,101782.56
2022-08-22T13:01:48.102Z,101776.81
2022-08-22T13:04:33.569Z,101777.47
2022-08-22T13:07:07.338Z,101771.91
2022-08-22T13:09:37.609Z,101770.88
2022-08-22T13:12:22.986Z,101776.13
2022-08-22T13:14:54.592Z,101778.16
2022-08-22T13:17:24.947Z,101771.75
2022-08-22T13:20:16.019Z,101777.00
2022-08-22T13:22:46.050Z,101784.25
2022-08-22T13:25:25.841Z,101776.97
2022-08-22T13:28:02.468Z,101775.28
2022-08-22T13:30:37.659Z,101772.59
2022-08-22T13:33:12.136Z,101778.16
2022-08-22T13:35:54.285Z,101775.63
2022-08-22T13:38:38.390Z,101760.41
2022-08-22T13:41:18.709Z,101761.41
2022-08-22T13:44:04.846Z,101760.22
2022-08-22T13:47:10.889Z,101746.84
2022-08-22T13:49:42.074Z,101750.59
2022-08-22T13:52:30.030Z,101748.22
2022-08-22T13:55:28.867Z,101743.97
2022-08-22T13:58:06.978Z,101738.22
2022-08-22T14:01:12.338Z,101744.88
2022-08-22T14:03:55.403Z,101734.69
2022-08-22T14:06:46.446Z,101745.38
2022-08-22T14:09:31.202Z,101743.00
2022-08-22T14:12:16.097Z,101726.38
2022-08-22T14:14:46.888Z,101729.63
2022-08-22T14:17:17.485Z,101734.19
2022-08-22T14:19:59.599Z,101738.94
2022-08-22T14:22:35.294Z,101735.56
2022-08-22T14:25:11.634Z,101730.31
2022-08-22T14:27:47.726Z,101728.59
2022-08-22T14:30:24.454Z,101737.75
2022-08-22T14:33:22.378Z,101738.59
2022-08-22T14:35:54.028Z,101728.59
2022-08-22T14:38:33.025Z,101726.78
2022-08-22T14:41:21.058Z,101727.59
2022-08-22T14:44:06.922Z,101724.38
2022-08-22T14:46:51.721Z,101714.56
2022-08-22T14:49:18.424Z,101721.66
2022-08-22T14:51:59.962Z,101708.13
2022-08-22T14:54:28.960Z,101700.00
2022-08-22T14:56:57.412Z,101715.91
2022-08-22T14:59:38.865Z,101709.44
2022-08-22T15:02:27.639Z,101710.44
2022-08-22T15:04:56.140Z,101707.03
2022-08-22T15:07:29.917Z,101692.63
2022-08-22T15:10:03.367Z,101706.66
2022-08-22T15:12:43.570Z,101700.59
2022-08-22T15:15:41.125Z,101702.94
2022-08-22T15:18:28.433Z,101699.53
2022-08-22T15:21:11.439Z,101704.28
2022-08-22T15:23:52.878Z,101704.97
2022-08-22T15:26:40.946Z,101700.72
2022-08-22T15:29:20.765Z,101694.31
2022-08-22T15:31:54.626Z,101696.66
2022-08-22T15:34:37.844Z,101692.25
2022-08-22T15:37:25.493Z,101691.25
2022-08-22T15:39:57.843Z,101691.25
2022-08-22T15:42:33.176Z,101686.50
2022-08-22T15:45:00.977Z,101687.19
2022-08-22T15:47:47.355Z,101684.47
2022-08-22T15:50:58.320Z,101665.84
2022-08-22T15:53:34.204Z,101677.19
2022-08-22T15:56:06.975Z,101683.81
2022-08-22T15:58:48.922Z,101674.47
2022-08-22T16:01:22.522Z,101666.91
2022-08-22T16:04:06.708Z,101667.25
2022-08-22T16:07:01.408Z,101665.56
2022-08-22T16:09:44.462Z,101670.31
2022-08-22T16:12:26.059Z,101658.78
2022-08-22T16:14:53.354Z,101666.56
2022-08-22T16:17:29.258Z,101660.13
2022-08-22T16:20:19.421Z,101659.63
2022-08-22T16:22:59.290Z,101660.53
2022-08-22T16:25:50.376Z,101660.69
2022-08-22T16:28:56.882Z,101649.69
2022-08-22T16:31:27.314Z,101634.81
2022-08-22T16:33:59.009Z,101632.28
2022-08-22T16:36:41.033Z,101651.56
2022-08-22T16:39:41.214Z,101629.72
2022-08-22T16:42:22.119Z,101651.06
2022-08-22T16:45:06.878Z,101649.88
2022-08-22T16:47:33.448Z,101644.81
2022-08-22T16:50:24.323Z,101645.66
2022-08-22T16:52:53.998Z,101641.91
2022-08-22T16:55:44.449Z,101641.91
2022-08-22T16:58:40.267Z,101644.63
2022-08-22T17:01:38.250Z,101615.00
2022-08-22T17:04:32.073Z,101638.53
2022-08-22T17:06:58.713Z,101637.38
2022-08-22T17:09:50.056Z,101616.34
2022-08-22T17:12:37.120Z,101625.31
2022-08-22T17:15:21.294Z,101628.69
2022-08-22T17:17:53.912Z,101633.28
2022-08-22T17:20:37.768Z,101634.47
2022-08-22T17:23:22.987Z,101634.63
2022-08-22T17:26:04.096Z,101614.50
2022-08-22T17:28:52.604Z,101605.53
2022-08-22T17:31:38.722Z,101602.66
2022-08-22T17:34:47.412Z,101625.00
2022-08-22T17:37:26.132Z,101629.41
2022-08-22T17:40:17.729Z,101639.03
2022-08-22T17:43:48.680Z,101643.28
2022-08-22T17:46:31.319Z,101643.41
2022-08-22T17:49:12.837Z,101651.19
2022-08-22T17:51:51.061Z,101642.53
2022-08-22T17:54:31.792Z,101640.69
2022-08-22T17:57:14.617Z,101647.56
2022-08-22T17:59:59.266Z,101645.53
2022-08-22T18:02:41.676Z,101617.41
2022-08-22T18:05:19.500Z,101654.09
2022-08-22T18:08:01.677Z,101629.00
2022-08-22T18:10:47.760Z,101652.19
2022-08-22T18:13:49.506Z,101655.06
2022-08-22T18:16:33.903Z,101625.34
2022-08-22T18:19:17.930Z,101611.78
2022-08-22T18:22:04.677Z,101648.03
2022-08-22T18:24:42.056Z,101651.00
2022-08-22T18:27:34.981Z,101649.56
2022-08-22T18:30:19.880Z,101651.22
2022-08-22T18:32:47.061Z,101655.16
2022-08-22T18:35:41.105Z,101657.47
2022-08-22T18:38:24.104Z,101645.94
2022-08-22T18:41:05.431Z,101665.22
2022-08-22T18:44:50.960Z,101631.03
2022-08-22T18:46:38.501Z,101678.25
2022-08-22T18:49:34.407Z,101670.13
2022-08-22T18:52:18.047Z,101669.91
2022-08-22T18:55:15.537Z,101660.31
2022-08-22T18:58:07.185Z,101685.72
2022-08-22T19:01:04.830Z,101678.09
2022-08-22T19:03:43.627Z,101677.69
2022-08-22T19:06:32.200Z,101660.44
2022-08-22T19:12:18.439Z,101650.56
2022-08-22T19:15:06.985Z,101699.28
2022-08-22T19:17:58.718Z,101688.91
2022-08-22T19:20:53.785Z,101694.84
2022-08-22T19:23:32.508Z,101697.75
2022-08-22T19:26:23.464Z,101695.66
2022-08-22T19:28:57.953Z,101704.34
2022-08-22T19:31:57.783Z,101682.28
2022-08-22T19:34:33.013Z,101696.44
2022-08-22T19:37:32.703Z,101697.91
2022-08-22T19:40:16.901Z,101653.34
2022-08-22T19:42:56.205Z,101655.03
2022-08-22T19:45:30.802Z,101675.28
2022-08-22T19:51:41.057Z,101643.84
2022-08-22T19:54:41.964Z,101672.91
2022-08-22T19:57:20.262Z,101638.50
2022-08-22T20:00:40.584Z,101666.38
2022-08-22T20:03:41.777Z,101665.00
2022-08-22T20:06:43.390Z,101653.13
2022-08-22T20:09:40.899Z,101690.19
2022-08-22T20:12:47.676Z,101650.88
2022-08-22T20:15:26.602Z,101663.63
2022-08-22T20:18:47.241Z,101694.63
2022-08-22T20:21:07.331Z,101650.34
2022-08-22T20:23:34.624Z,101675.69
2022-08-22T20:26:08.155Z,101648.50
2022-08-22T20:32:21.700Z,101685.47
2022-08-22T20:35:06.370Z,101652.22
2022-08-22T20:38:08.524Z,101638.91
2022-08-22T20:40:57.379Z,101685.91
2022-08-22T20:43:34.588Z,101686.06
2022-08-22T20:46:44.041Z,101678.53
2022-08-22T20:49:23.612Z,101643.97
2022-08-22T20:52:00.717Z,101656.44
2022-08-22T20:54:33.087Z,101673.59
2022-08-22T20:57:03.025Z,101652.50
2022-08-22T20:59:41.628Z,101659.44
2022-08-22T21:02:29.586Z,101638.09
2022-08-22T21:05:14.581Z,101657.91
2022-08-22T21:08:10.074Z,101639.78
2022-08-22T21:10:57.887Z,101662.28
2022-08-22T21:13:48.487Z,101683.09
2022-08-22T21:16:33.381Z,101690.75
2022-08-22T21:19:04.179Z,101665.28
2022-08-22T21:21:34.873Z,101654.91
2022-08-22T21:24:11.697Z,101692.16
2022-08-22T21:26:50.111Z,101668.53
2022-08-22T21:29:16.671Z,101682.81
2022-08-22T21:31:51.895Z,101688.06
2022-08-22T21:34:26.526Z,101645.38
2022-08-22T21:37:02.618Z,101689.91
2022-08-22T21:39:47.737Z,101669.09
2022-08-22T21:42:36.319Z,101638.31
2022-08-22T21:45:15.954Z,101639.16
2022-08-22T21:47:45.490Z,101652.16
2022-08-22T21:50:25.145Z,101680.63
2022-08-22T21:53:10.134Z,101680.63
2022-08-22T21:55:43.166Z,101674.22
2022-08-22T21:59:00.479Z,101649.47
2022-08-22T22:01:32.752Z,101653.69
2022-08-22T22:04:03.283Z,101653.41
2022-08-22T22:06:32.277Z,101656.94
2022-08-22T22:08:59.014Z,101650.44
2022-08-22T22:11:29.748Z,101667.28
2022-08-22T22:13:59.060Z,101630.75
2022-08-22T22:16:28.350Z,101628.22
2022-08-22T22:18:58.226Z,101622.56
2022-08-22T22:21:24.847Z,101673.25
2022-08-22T22:23:52.483Z,101655.72
2022-08-22T22:26:21.009Z,101665.66
2022-08-22T22:28:51.206Z,101657.69
2022-08-22T22:31:18.590Z,101674.47
2022-08-22T22:33:45.734Z,101646.50
2022-08-22T22:36:18.176Z,101661.59
2022-08-22T22:38:44.945Z,101638.59
2022-08-22T22:41:17.188Z,101660.03
2022-08-22T22:43:45.390Z,101625.28
2022-08-22T22:46:14.580Z,101671.34
2022-08-22T22:48:41.400Z,101672.47
2022-08-22T22:51:09.880Z,101659.19
2022-08-22T22:53:38.358Z,101649.41
2022-08-22T22:56:09.241Z,101648.41
2022-08-22T22:58:37.487Z,101649.28
2022-08-22T23:01:13.209Z,101678.44
2022-08-22T23:03:40.468Z,101641.28
2022-08-22T23:06:12.206Z,101678.72
2022-08-22T23:08:40.316Z,101674.47
2022-08-22T23:11:12.461Z,101679.44
2022-08-22T23:13:42.954Z,101686.38
2022-08-22T23:16:14.195Z,101658.31
2022-08-22T23:18:45.405Z,101643.81
2022-08-22T23:21:22.001Z,101644.94
2022-08-22T23:23:49.619Z,101669.19
2022-08-22T23:26:16.988Z,101638.00
2022-08-22T23:28:44.346Z,101672.97
2022-08-22T23:31:34.964Z,101655.84
2022-08-22T23:34:07.969Z,101664.91
2022-08-22T23:36:37.359Z,101669.31
2022-08-22T23:39:06.835Z,101669.31
2022-08-22T23:41:36.778Z,101645.09
2022-08-22T23:44:05.678Z,101621.75
2022-08-22T23:46:32.829Z,101633.50
2022-08-22T23:49:02.470Z,101638.31
2022-08-22T23:51:29.591Z,101627.69
2022-08-22T23:53:57.958Z,101617.34
2022-08-22T23:56:27.556Z,101657.06
2022-08-22T23:58:54.613Z,101652.94
